BKPR/PRN METAR and TAF weather

Enter ICAO airport designator
Station Type Date Time Source
BKPR METAR 2021/07/29 02:30 UTC NOAA

BKPR 290230Z 00000KT CAVOK 18/14 Q1017 NOSIG


Station Type Date Time Source
BKPR Decoded METAR 2021/07/29 02:30 UTC NOAA

Station name not available
Jul 28, 2021 - 10:30 PM EDT / 2021.07.29 0230 UTC
Wind: Calm:0
Visibility: greater than 7 mile(s):0
Temperature: 64 F (18 C)
Dew Point: 57 F (14 C)
Relative Humidity: 77%
Pressure (altimeter): 30.03 in. Hg (1017 hPa)
ob: BKPR 290230Z 00000KT CAVOK 18/14 Q1017 NOSIG
cycle: 2

Station Type Date Time Source
BKPR TAF 2021/07/28 18:30 UTC NOAA

TAF BKPR 281730Z 2818/2918 VRB05KT CAVOK

Example: see airport list